sensor_id;sensor_type;location;lat;lon;timestamp;temperature;humidity
13721;DHT22;6932;51.438;5.470;2024-03-02T00:00:09;14.40;97.10
13721;DHT22;6932;51.438;5.470;2024-03-02T00:02:41;14.40;97.10
13721;DHT22;6932;51.438;5.470;2024-03-02T00:05:11;14.50;97.30
13721;DHT22;6932;51.438;5.470;2024-03-02T00:07:41;14.50;97.40
13721;DHT22;6932;51.438;5.470;2024-03-02T00:10:09;14.50;97.50
13721;DHT22;6932;51.438;5.470;2024-03-02T00:12:37;14.50;97.60
13721;DHT22;6932;51.438;5.470;2024-03-02T00:15:47;14.50;97.80
13721;DHT22;6932;51.438;5.470;2024-03-02T00:18:25;14.50;98.10
13721;DHT22;6932;51.438;5.470;2024-03-02T00:20:56;14.50;98.40
13721;DHT22;6932;51.438;5.470;2024-03-02T00:23:23;14.40;98.50
13721;DHT22;6932;51.438;5.470;2024-03-02T00:25:53;14.40;98.70
13721;DHT22;6932;51.438;5.470;2024-03-02T00:28:21;14.30;98.80
13721;DHT22;6932;51.438;5.470;2024-03-02T00:31:11;14.20;99.00
13721;DHT22;6932;51.438;5.470;2024-03-02T00:33:45;14.00;99.00
13721;DHT22;6932;51.438;5.470;2024-03-02T00:36:14;14.00;99.30
13721;DHT22;6932;51.438;5.470;2024-03-02T00:38:49;13.90;99.40
13721;DHT22;6932;51.438;5.470;2024-03-02T00:41:24;13.80;99.60
13721;DHT22;6932;51.438;5.470;2024-03-02T00:43:57;13.70;99.80
13721;DHT22;6932;51.438;5.470;2024-03-02T00:46:33;13.70;99.90
13721;DHT22;6932;51.438;5.470;2024-03-02T00:49:04;13.60;99.90
13721;DHT22;6932;51.438;5.470;2024-03-02T00:51:32;13.50;99.90
13721;DHT22;6932;51.438;5.470;2024-03-02T00:54:03;13.40;99.90
13721;DHT22;6932;51.438;5.470;2024-03-02T00:56:31;13.40;99.90
13721;DHT22;6932;51.438;5.470;2024-03-02T00:58:57;13.30;99.90
13721;DHT22;6932;51.438;5.470;2024-03-02T01:01:23;13.30;99.90
13721;DHT22;6932;51.438;5.470;2024-03-02T01:03:49;13.30;99.90
13721;DHT22;6932;51.438;5.470;2024-03-02T01:06:16;13.20;99.90
13721;DHT22;6932;51.438;5.470;2024-03-02T01:08:43;13.20;99.90
13721;DHT22;6932;51.438;5.470;2024-03-02T01:11:09;13.20;99.90
13721;DHT22;6932;51.438;5.470;2024-03-02T01:13:35;13.20;99.90
13721;DHT22;6932;51.438;5.470;2024-03-02T01:16:01;13.10;99.90
13721;DHT22;6932;51.438;5.470;2024-03-02T01:18:27;13.10;99.90
13721;DHT22;6932;51.438;5.470;2024-03-02T01:20:53;13.10;99.90
13721;DHT22;6932;51.438;5.470;2024-03-02T01:23:22;13.10;99.90
13721;DHT22;6932;51.438;5.470;2024-03-02T01:25:49;13.10;99.90
13721;DHT22;6932;51.438;5.470;2024-03-02T01:28:16;13.10;99.90
13721;DHT22;6932;51.438;5.470;2024-03-02T01:30:42;13.10;99.90
13721;DHT22;6932;51.438;5.470;2024-03-02T01:33:08;13.10;99.90
13721;DHT22;6932;51.438;5.470;2024-03-02T01:35:35;13.10;99.90
13721;DHT22;6932;51.438;5.470;2024-03-02T01:38:01;13.00;99.90
13721;DHT22;6932;51.438;5.470;2024-03-02T01:40:27;13.10;99.90
13721;DHT22;6932;51.438;5.470;2024-03-02T01:42:53;13.10;99.90
13721;DHT22;6932;51.438;5.470;2024-03-02T01:45:20;13.10;99.90
13721;DHT22;6932;51.438;5.470;2024-03-02T01:47:46;13.10;99.90
13721;DHT22;6932;51.438;5.470;2024-03-02T01:50:12;13.10;99.90
13721;DHT22;6932;51.438;5.470;2024-03-02T01:52:38;13.10;99.90
13721;DHT22;6932;51.438;5.470;2024-03-02T01:55:05;13.10;99.90
13721;DHT22;6932;51.438;5.470;2024-03-02T01:57:32;13.10;99.90
13721;DHT22;6932;51.438;5.470;2024-03-02T01:59:58;13.10;99.90
13721;DHT22;6932;51.438;5.470;2024-03-02T02:02:24;13.10;99.90
13721;DHT22;6932;51.438;5.470;2024-03-02T02:04:50;13.10;99.90
13721;DHT22;6932;51.438;5.470;2024-03-02T02:07:16;13.20;99.90
13721;DHT22;6932;51.438;5.470;2024-03-02T02:09:42;13.10;99.90
13721;DHT22;6932;51.438;5.470;2024-03-02T02:12:09;13.10;99.90
13721;DHT22;6932;51.438;5.470;2024-03-02T02:14:35;13.10;99.90
13721;DHT22;6932;51.438;5.470;2024-03-02T02:17:02;13.10;99.90
13721;DHT22;6932;51.438;5.470;2024-03-02T02:19:28;13.10;99.90
13721;DHT22;6932;51.438;5.470;2024-03-02T02:21:54;13.10;99.90
13721;DHT22;6932;51.438;5.470;2024-03-02T02:24:21;13.10;99.90
13721;DHT22;6932;51.438;5.470;2024-03-02T02:26:46;13.10;99.90
13721;DHT22;6932;51.438;5.470;2024-03-02T02:29:12;13.10;99.90
13721;DHT22;6932;51.438;5.470;2024-03-02T02:31:41;13.10;99.90
13721;DHT22;6932;51.438;5.470;2024-03-02T02:34:07;13.10;99.90
13721;DHT22;6932;51.438;5.470;2024-03-02T02:36:34;13.00;99.90
13721;DHT22;6932;51.438;5.470;2024-03-02T02:39:04;13.00;99.90
13721;DHT22;6932;51.438;5.470;2024-03-02T02:41:32;13.10;99.90
13721;DHT22;6932;51.438;5.470;2024-03-02T02:43:58;13.00;99.90
13721;DHT22;6932;51.438;5.470;2024-03-02T02:46:23;13.00;99.90
13721;DHT22;6932;51.438;5.470;2024-03-02T02:48:49;13.00;99.90
13721;DHT22;6932;51.438;5.470;2024-03-02T02:51:17;13.00;99.90
13721;DHT22;6932;51.438;5.470;2024-03-02T02:53:42;13.00;99.90
13721;DHT22;6932;51.438;5.470;2024-03-02T02:56:09;13.00;99.90
13721;DHT22;6932;51.438;5.470;2024-03-02T02:58:34;12.90;99.90
13721;DHT22;6932;51.438;5.470;2024-03-02T03:01:01;13.00;99.90
13721;DHT22;6932;51.438;5.470;2024-03-02T03:03:26;13.00;99.90
13721;DHT22;6932;51.438;5.470;2024-03-02T03:05:52;12.90;99.90
13721;DHT22;6932;51.438;5.470;2024-03-02T03:08:18;12.90;99.90
13721;DHT22;6932;51.438;5.470;2024-03-02T03:10:44;12.90;99.90
13721;DHT22;6932;51.438;5.470;2024-03-02T03:13:10;12.90;99.90
13721;DHT22;6932;51.438;5.470;2024-03-02T03:15:36;12.90;99.90
13721;DHT22;6932;51.438;5.470;2024-03-02T03:18:03;12.90;99.90
13721;DHT22;6932;51.438;5.470;2024-03-02T03:20:30;12.90;99.90
13721;DHT22;6932;51.438;5.470;2024-03-02T03:22:56;12.90;99.90
13721;DHT22;6932;51.438;5.470;2024-03-02T03:25:23;12.90;99.90
13721;DHT22;6932;51.438;5.470;2024-03-02T03:27:48;12.80;99.90
13721;DHT22;6932;51.438;5.470;2024-03-02T03:30:14;12.90;99.90
13721;DHT22;6932;51.438;5.470;2024-03-02T03:32:40;12.80;99.90
13721;DHT22;6932;51.438;5.470;2024-03-02T03:35:06;12.80;99.90
13721;DHT22;6932;51.438;5.470;2024-03-02T03:37:32;12.80;99.90
13721;DHT22;6932;51.438;5.470;2024-03-02T03:40:02;12.80;99.90
13721;DHT22;6932;51.438;5.470;2024-03-02T03:42:32;12.80;99.90
13721;DHT22;6932;51.438;5.470;2024-03-02T03:44:58;12.80;99.90
13721;DHT22;6932;51.438;5.470;2024-03-02T03:47:23;12.80;99.90
13721;DHT22;6932;51.438;5.470;2024-03-02T03:49:49;12.80;99.90
13721;DHT22;6932;51.438;5.470;2024-03-02T03:52:15;12.80;99.90
13721;DHT22;6932;51.438;5.470;2024-03-02T03:54:40;12.80;99.90
13721;DHT22;6932;51.438;5.470;2024-03-02T03:57:08;12.80;99.90
13721;DHT22;6932;51.438;5.470;2024-03-02T03:59:34;12.80;99.90
13721;DHT22;6932;51.438;5.470;2024-03-02T04:01:59;12.80;99.90
13721;DHT22;6932;51.438;5.470;2024-03-02T04:04:25;12.80;99.90
13721;DHT22;6932;51.438;5.470;2024-03-02T04:06:51;12.80;99.90
13721;DHT22;6932;51.438;5.470;2024-03-02T04:09:16;12.80;99.90
13721;DHT22;6932;51.438;5.470;2024-03-02T04:11:43;12.80;99.90
13721;DHT22;6932;51.438;5.470;2024-03-02T04:14:08;12.80;99.90
13721;DHT22;6932;51.438;5.470;2024-03-02T04:16:34;12.80;99.90
13721;DHT22;6932;51.438;5.470;2024-03-02T04:19:00;12.70;99.90
13721;DHT22;6932;51.438;5.470;2024-03-02T04:21:25;12.80;99.90
13721;DHT22;6932;51.438;5.470;2024-03-02T04:23:51;12.80;99.90
13721;DHT22;6932;51.438;5.470;2024-03-02T04:26:17;12.80;99.90
13721;DHT22;6932;51.438;5.470;2024-03-02T04:28:47;12.80;99.90
13721;DHT22;6932;51.438;5.470;2024-03-02T04:31:14;12.80;99.90
13721;DHT22;6932;51.438;5.470;2024-03-02T04:33:40;12.70;99.90
13721;DHT22;6932;51.438;5.470;2024-03-02T04:36:06;12.70;99.90
13721;DHT22;6932;51.438;5.470;2024-03-02T04:38:35;12.70;99.90
13721;DHT22;6932;51.438;5.470;2024-03-02T04:41:01;12.70;99.90
13721;DHT22;6932;51.438;5.470;2024-03-02T04:43:26;12.70;99.90
13721;DHT22;6932;51.438;5.470;2024-03-02T04:45:52;12.70;99.90
13721;DHT22;6932;51.438;5.470;2024-03-02T04:48:18;12.70;99.90
13721;DHT22;6932;51.438;5.470;2024-03-02T04:50:44;12.70;99.90
13721;DHT22;6932;51.438;5.470;2024-03-02T04:53:10;12.70;99.90
13721;DHT22;6932;51.438;5.470;2024-03-02T04:55:36;12.70;99.90
13721;DHT22;6932;51.438;5.470;2024-03-02T04:58:04;12.70;99.90
13721;DHT22;6932;51.438;5.470;2024-03-02T05:00:30;12.70;99.90
13721;DHT22;6932;51.438;5.470;2024-03-02T05:02:56;12.70;99.90
13721;DHT22;6932;51.438;5.470;2024-03-02T05:05:22;12.70;99.90
13721;DHT22;6932;51.438;5.470;2024-03-02T05:07:48;12.70;99.90
13721;DHT22;6932;51.438;5.470;2024-03-02T05:10:13;12.70;99.90
13721;DHT22;6932;51.438;5.470;2024-03-02T05:12:39;12.70;99.90
13721;DHT22;6932;51.438;5.470;2024-03-02T05:15:13;12.70;99.90
13721;DHT22;6932;51.438;5.470;2024-03-02T05:17:40;12.70;99.90
13721;DHT22;6932;51.438;5.470;2024-03-02T05:20:08;12.70;99.90
13721;DHT22;6932;51.438;5.470;2024-03-02T05:22:35;12.70;99.90
13721;DHT22;6932;51.438;5.470;2024-03-02T05:25:02;12.70;99.90
13721;DHT22;6932;51.438;5.470;2024-03-02T05:27:28;12.60;99.90
13721;DHT22;6932;51.438;5.470;2024-03-02T05:29:54;12.60;99.90
13721;DHT22;6932;51.438;5.470;2024-03-02T05:32:20;12.60;99.90
13721;DHT22;6932;51.438;5.470;2024-03-02T05:34:46;12.60;99.90
13721;DHT22;6932;51.438;5.470;2024-03-02T05:37:12;12.60;99.90
13721;DHT22;6932;51.438;5.470;2024-03-02T05:39:37;12.60;99.90
13721;DHT22;6932;51.438;5.470;2024-03-02T05:42:03;12.60;99.90
13721;DHT22;6932;51.438;5.470;2024-03-02T05:44:29;12.60;99.90
13721;DHT22;6932;51.438;5.470;2024-03-02T05:46:55;12.60;99.90
13721;DHT22;6932;51.438;5.470;2024-03-02T05:49:21;12.60;99.90
13721;DHT22;6932;51.438;5.470;2024-03-02T05:51:47;12.60;99.90
13721;DHT22;6932;51.438;5.470;2024-03-02T05:54:13;12.60;99.90
13721;DHT22;6932;51.438;5.470;2024-03-02T05:56:39;12.60;99.90
13721;DHT22;6932;51.438;5.470;2024-03-02T05:59:04;12.60;99.90
13721;DHT22;6932;51.438;5.470;2024-03-02T06:01:40;12.60;99.90
13721;DHT22;6932;51.438;5.470;2024-03-02T06:04:06;12.60;99.90
13721;DHT22;6932;51.438;5.470;2024-03-02T06:06:33;12.60;99.90
13721;DHT22;6932;51.438;5.470;2024-03-02T06:09:03;12.60;99.90
13721;DHT22;6932;51.438;5.470;2024-03-02T06:11:40;12.60;99.90
13721;DHT22;6932;51.438;5.470;2024-03-02T06:14:07;12.60;99.90
13721;DHT22;6932;51.438;5.470;2024-03-02T06:16:34;12.60;99.90
13721;DHT22;6932;51.438;5.470;2024-03-02T06:19:01;12.60;99.90
13721;DHT22;6932;51.438;5.470;2024-03-02T06:21:27;12.60;99.90
13721;DHT22;6932;51.438;5.470;2024-03-02T06:23:53;12.60;99.90
13721;DHT22;6932;51.438;5.470;2024-03-02T06:26:20;12.60;99.90
13721;DHT22;6932;51.438;5.470;2024-03-02T06:28:46;12.60;99.90
13721;DHT22;6932;51.438;5.470;2024-03-02T06:31:12;12.60;99.90
13721;DHT22;6932;51.438;5.470;2024-03-02T06:33:37;12.60;99.90
13721;DHT22;6932;51.438;5.470;2024-03-02T06:36:04;12.60;99.90
13721;DHT22;6932;51.438;5.470;2024-03-02T06:38:30;12.60;99.90
13721;DHT22;6932;51.438;5.470;2024-03-02T06:40:58;12.60;99.90
13721;DHT22;6932;51.438;5.470;2024-03-02T06:43:24;12.50;99.90
13721;DHT22;6932;51.438;5.470;2024-03-02T06:45:50;12.50;99.90
13721;DHT22;6932;51.438;5.470;2024-03-02T06:48:17;12.50;99.90
13721;DHT22;6932;51.438;5.470;2024-03-02T06:50:46;12.50;99.90
13721;DHT22;6932;51.438;5.470;2024-03-02T06:53:13;12.50;99.90
13721;DHT22;6932;51.438;5.470;2024-03-02T06:55:39;12.60;99.90
13721;DHT22;6932;51.438;5.470;2024-03-02T06:58:05;12.60;99.90
13721;DHT22;6932;51.438;5.470;2024-03-02T07:00:30;12.60;99.90
13721;DHT22;6932;51.438;5.470;2024-03-02T07:02:56;12.70;99.90
13721;DHT22;6932;51.438;5.470;2024-03-02T07:05:22;12.70;99.90
13721;DHT22;6932;51.438;5.470;2024-03-02T07:07:47;12.80;99.90
13721;DHT22;6932;51.438;5.470;2024-03-02T07:10:13;12.80;99.90
13721;DHT22;6932;51.438;5.470;2024-03-02T07:12:39;12.90;99.90
13721;DHT22;6932;51.438;5.470;2024-03-02T07:15:05;12.90;99.90
13721;DHT22;6932;51.438;5.470;2024-03-02T07:17:32;13.00;99.90
13721;DHT22;6932;51.438;5.470;2024-03-02T07:19:58;13.00;99.90
13721;DHT22;6932;51.438;5.470;2024-03-02T07:22:24;13.10;99.90
13721;DHT22;6932;51.438;5.470;2024-03-02T07:24:50;13.10;99.90
13721;DHT22;6932;51.438;5.470;2024-03-02T07:27:16;13.30;99.90
13721;DHT22;6932;51.438;5.470;2024-03-02T07:29:43;13.40;99.90
13721;DHT22;6932;51.438;5.470;2024-03-02T07:32:10;13.40;99.90
13721;DHT22;6932;51.438;5.470;2024-03-02T07:34:36;13.50;99.90
13721;DHT22;6932;51.438;5.470;2024-03-02T07:37:03;13.50;99.80
13721;DHT22;6932;51.438;5.470;2024-03-02T07:39:29;13.60;99.70
13721;DHT22;6932;51.438;5.470;2024-03-02T07:41:56;13.60;99.60
13721;DHT22;6932;51.438;5.470;2024-03-02T07:44:22;13.70;99.50
13721;DHT22;6932;51.438;5.470;2024-03-02T07:46:48;13.70;99.40
13721;DHT22;6932;51.438;5.470;2024-03-02T07:49:18;13.70;99.30
13721;DHT22;6932;51.438;5.470;2024-03-02T07:51:44;13.70;99.20
13721;DHT22;6932;51.438;5.470;2024-03-02T07:54:10;13.60;99.10
13721;DHT22;6932;51.438;5.470;2024-03-02T07:56:36;13.70;99.10
13721;DHT22;6932;51.438;5.470;2024-03-02T07:59:02;13.60;99.00
13721;DHT22;6932;51.438;5.470;2024-03-02T08:01:30;13.70;99.00
13721;DHT22;6932;51.438;5.470;2024-03-02T08:04:00;13.70;99.00
13721;DHT22;6932;51.438;5.470;2024-03-02T08:06:28;13.60;98.90
13721;DHT22;6932;51.438;5.470;2024-03-02T08:08:55;13.60;98.90
13721;DHT22;6932;51.438;5.470;2024-03-02T08:11:21;13.60;99.00
13721;DHT22;6932;51.438;5.470;2024-03-02T08:13:47;13.70;99.10
13721;DHT22;6932;51.438;5.470;2024-03-02T08:16:17;13.70;99.10
13721;DHT22;6932;51.438;5.470;2024-03-02T08:18:47;13.70;99.20
13721;DHT22;6932;51.438;5.470;2024-03-02T08:21:14;13.80;99.30
13721;DHT22;6932;51.438;5.470;2024-03-02T08:23:40;13.90;99.20
13721;DHT22;6932;51.438;5.470;2024-03-02T08:26:08;14.10;99.20
13721;DHT22;6932;51.438;5.470;2024-03-02T08:28:34;14.10;99.10
13721;DHT22;6932;51.438;5.470;2024-03-02T08:31:03;14.20;99.00
13721;DHT22;6932;51.438;5.470;2024-03-02T08:33:29;14.40;99.00
13721;DHT22;6932;51.438;5.470;2024-03-02T08:35:55;14.50;98.80
13721;DHT22;6932;51.438;5.470;2024-03-02T08:38:22;14.60;98.70
13721;DHT22;6932;51.438;5.470;2024-03-02T08:40:49;14.70;98.70
13721;DHT22;6932;51.438;5.470;2024-03-02T08:43:15;14.70;98.50
13721;DHT22;6932;51.438;5.470;2024-03-02T08:45:41;14.80;98.50
13721;DHT22;6932;51.438;5.470;2024-03-02T08:48:10;14.90;98.40
13721;DHT22;6932;51.438;5.470;2024-03-02T08:50:36;15.00;98.40
13721;DHT22;6932;51.438;5.470;2024-03-02T08:53:04;15.10;98.30
13721;DHT22;6932;51.438;5.470;2024-03-02T08:55:30;15.20;98.20
13721;DHT22;6932;51.438;5.470;2024-03-02T08:57:56;15.20;98.10
13721;DHT22;6932;51.438;5.470;2024-03-02T09:00:22;15.30;98.10
13721;DHT22;6932;51.438;5.470;2024-03-02T09:02:48;15.40;97.90
13721;DHT22;6932;51.438;5.470;2024-03-02T09:05:15;15.50;97.70
13721;DHT22;6932;51.438;5.470;2024-03-02T09:07:40;15.50;97.60
13721;DHT22;6932;51.438;5.470;2024-03-02T09:10:07;15.70;97.70
13721;DHT22;6932;51.438;5.470;2024-03-02T09:12:34;15.70;97.40
13721;DHT22;6932;51.438;5.470;2024-03-02T09:15:01;15.70;97.30
13721;DHT22;6932;51.438;5.470;2024-03-02T09:17:27;15.80;97.30
13721;DHT22;6932;51.438;5.470;2024-03-02T09:19:52;15.80;97.10
13721;DHT22;6932;51.438;5.470;2024-03-02T09:22:19;15.80;97.10
13721;DHT22;6932;51.438;5.470;2024-03-02T09:24:45;15.90;96.80
13721;DHT22;6932;51.438;5.470;2024-03-02T09:27:11;15.90;96.80
13721;DHT22;6932;51.438;5.470;2024-03-02T09:29:37;15.90;96.80
13721;DHT22;6932;51.438;5.470;2024-03-02T09:32:03;16.00;96.90
13721;DHT22;6932;51.438;5.470;2024-03-02T09:34:31;16.00;96.70
13721;DHT22;6932;51.438;5.470;2024-03-02T09:36:57;16.10;96.70
13721;DHT22;6932;51.438;5.470;2024-03-02T09:39:23;16.10;96.60
13721;DHT22;6932;51.438;5.470;2024-03-02T09:41:51;16.20;96.30
13721;DHT22;6932;51.438;5.470;2024-03-02T09:44:17;16.20;96.30
13721;DHT22;6932;51.438;5.470;2024-03-02T09:46:43;16.30;96.30
13721;DHT22;6932;51.438;5.470;2024-03-02T09:49:10;16.30;96.00
13721;DHT22;6932;51.438;5.470;2024-03-02T09:51:37;16.30;95.90
13721;DHT22;6932;51.438;5.470;2024-03-02T09:54:03;16.40;95.80
13721;DHT22;6932;51.438;5.470;2024-03-02T09:56:30;16.40;95.50
13721;DHT22;6932;51.438;5.470;2024-03-02T09:58:56;16.40;95.50
13721;DHT22;6932;51.438;5.470;2024-03-02T10:01:21;16.50;95.40
13721;DHT22;6932;51.438;5.470;2024-03-02T10:03:47;16.50;95.30
13721;DHT22;6932;51.438;5.470;2024-03-02T10:06:23;16.60;95.50
13721;DHT22;6932;51.438;5.470;2024-03-02T10:08:50;16.70;95.40
13721;DHT22;6932;51.438;5.470;2024-03-02T10:11:33;16.70;95.50
13721;DHT22;6932;51.438;5.470;2024-03-02T10:14:12;16.80;95.50
13721;DHT22;6932;51.438;5.470;2024-03-02T10:16:40;16.80;95.00
13721;DHT22;6932;51.438;5.470;2024-03-02T10:21:48;17.00;94.90
13721;DHT22;6932;51.438;5.470;2024-03-02T10:24:18;17.00;94.50
13721;DHT22;6932;51.438;5.470;2024-03-02T10:26:45;17.00;94.40
13721;DHT22;6932;51.438;5.470;2024-03-02T10:29:11;17.10;93.90
13721;DHT22;6932;51.438;5.470;2024-03-02T10:31:38;17.20;93.60
13721;DHT22;6932;51.438;5.470;2024-03-02T10:34:10;17.20;93.80
13721;DHT22;6932;51.438;5.470;2024-03-02T10:36:37;17.30;93.60
13721;DHT22;6932;51.438;5.470;2024-03-02T10:39:07;17.30;93.40
13721;DHT22;6932;51.438;5.470;2024-03-02T10:41:35;17.30;93.50
13721;DHT22;6932;51.438;5.470;2024-03-02T10:44:03;17.40;93.40
13721;DHT22;6932;51.438;5.470;2024-03-02T10:46:31;17.40;93.20
13721;DHT22;6932;51.438;5.470;2024-03-02T10:49:02;17.40;93.10
13721;DHT22;6932;51.438;5.470;2024-03-02T10:51:33;17.40;93.10
13721;DHT22;6932;51.438;5.470;2024-03-02T10:54:02;17.50;93.20
13721;DHT22;6932;51.438;5.470;2024-03-02T10:56:33;17.60;93.00
13721;DHT22;6932;51.438;5.470;2024-03-02T10:59:28;17.60;92.90
13721;DHT22;6932;51.438;5.470;2024-03-02T11:02:00;17.60;93.20
13721;DHT22;6932;51.438;5.470;2024-03-02T11:04:28;17.60;92.50
13721;DHT22;6932;51.438;5.470;2024-03-02T11:07:08;17.50;92.60
13721;DHT22;6932;51.438;5.470;2024-03-02T11:09:45;17.50;92.70
13721;DHT22;6932;51.438;5.470;2024-03-02T11:12:23;17.50;92.70
13721;DHT22;6932;51.438;5.470;2024-03-02T11:15:18;17.50;92.60
13721;DHT22;6932;51.438;5.470;2024-03-02T11:17:47;17.50;92.80
13721;DHT22;6932;51.438;5.470;2024-03-02T11:20:14;17.50;92.50
13721;DHT22;6932;51.438;5.470;2024-03-02T11:22:40;17.50;92.20
13721;DHT22;6932;51.438;5.470;2024-03-02T11:25:26;17.50;92.30
13721;DHT22;6932;51.438;5.470;2024-03-02T11:33:00;17.40;92.60
13721;DHT22;6932;51.438;5.470;2024-03-02T11:35:37;17.30;92.60
13721;DHT22;6932;51.438;5.470;2024-03-02T11:38:07;17.30;92.40
13721;DHT22;6932;51.438;5.470;2024-03-02T11:40:33;17.30;92.40
13721;DHT22;6932;51.438;5.470;2024-03-02T11:43:02;17.30;92.40
13721;DHT22;6932;51.438;5.470;2024-03-02T11:45:30;17.30;92.40
13721;DHT22;6932;51.438;5.470;2024-03-02T11:48:00;17.40;92.30
13721;DHT22;6932;51.438;5.470;2024-03-02T11:50:35;17.30;92.40
13721;DHT22;6932;51.438;5.470;2024-03-02T11:53:09;17.40;92.50
13721;DHT22;6932;51.438;5.470;2024-03-02T11:55:36;17.40;92.00
13721;DHT22;6932;51.438;5.470;2024-03-02T11:58:07;17.40;92.10
13721;DHT22;6932;51.438;5.470;2024-03-02T12:00:33;17.40;92.20
13721;DHT22;6932;51.438;5.470;2024-03-02T12:03:09;17.40;91.90
13721;DHT22;6932;51.438;5.470;2024-03-02T12:05:39;17.40;92.00
13721;DHT22;6932;51.438;5.470;2024-03-02T12:08:06;17.40;92.00
13721;DHT22;6932;51.438;5.470;2024-03-02T12:10:33;17.40;92.00
13721;DHT22;6932;51.438;5.470;2024-03-02T12:13:01;17.40;91.90
13721;DHT22;6932;51.438;5.470;2024-03-02T12:15:31;17.40;92.00
13721;DHT22;6932;51.438;5.470;2024-03-02T12:17:59;17.40;92.30
13721;DHT22;6932;51.438;5.470;2024-03-02T12:20:27;17.40;92.10
13721;DHT22;6932;51.438;5.470;2024-03-02T12:22:57;17.40;92.50
13721;DHT22;6932;51.438;5.470;2024-03-02T12:25:24;17.40;92.30
13721;DHT22;6932;51.438;5.470;2024-03-02T12:27:53;17.40;92.20
13721;DHT22;6932;51.438;5.470;2024-03-02T12:30:20;17.40;92.20
13721;DHT22;6932;51.438;5.470;2024-03-02T12:32:47;17.40;92.00
13721;DHT22;6932;51.438;5.470;2024-03-02T12:35:14;17.40;92.20
13721;DHT22;6932;51.438;5.470;2024-03-02T12:37:43;17.30;92.10
13721;DHT22;6932;51.438;5.470;2024-03-02T12:40:14;17.30;91.90
13721;DHT22;6932;51.438;5.470;2024-03-02T12:42:41;17.30;92.00
13721;DHT22;6932;51.438;5.470;2024-03-02T12:45:09;17.30;92.10
13721;DHT22;6932;51.438;5.470;2024-03-02T12:47:36;17.30;92.30
13721;DHT22;6932;51.438;5.470;2024-03-02T12:50:03;17.30;92.10
13721;DHT22;6932;51.438;5.470;2024-03-02T12:52:30;17.30;92.00
13721;DHT22;6932;51.438;5.470;2024-03-02T12:55:01;17.30;91.70
13721;DHT22;6932;51.438;5.470;2024-03-02T12:57:29;17.30;91.60
13721;DHT22;6932;51.438;5.470;2024-03-02T13:00:05;17.30;91.70
13721;DHT22;6932;51.438;5.470;2024-03-02T13:02:35;17.30;92.00
13721;DHT22;6932;51.438;5.470;2024-03-02T13:05:02;17.30;92.00
13721;DHT22;6932;51.438;5.470;2024-03-02T13:07:29;17.30;91.70
13721;DHT22;6932;51.438;5.470;2024-03-02T13:09:55;17.30;91.60
13721;DHT22;6932;51.438;5.470;2024-03-02T13:12:23;17.30;91.40
13721;DHT22;6932;51.438;5.470;2024-03-02T13:14:51;17.30;91.40
13721;DHT22;6932;51.438;5.470;2024-03-02T13:17:20;17.30;91.60
13721;DHT22;6932;51.438;5.470;2024-03-02T13:19:57;17.40;91.60
13721;DHT22;6932;51.438;5.470;2024-03-02T13:22:27;17.40;92.00
13721;DHT22;6932;51.438;5.470;2024-03-02T13:24:53;17.40;91.60
13721;DHT22;6932;51.438;5.470;2024-03-02T13:27:22;17.40;91.50
13721;DHT22;6932;51.438;5.470;2024-03-02T13:29:49;17.40;91.60
13721;DHT22;6932;51.438;5.470;2024-03-02T13:32:16;17.40;91.60
13721;DHT22;6932;51.438;5.470;2024-03-02T13:34:42;17.40;91.80
13721;DHT22;6932;51.438;5.470;2024-03-02T13:37:09;17.40;91.70
13721;DHT22;6932;51.438;5.470;2024-03-02T13:39:35;17.50;91.60
13721;DHT22;6932;51.438;5.470;2024-03-02T13:42:10;17.50;91.50
13721;DHT22;6932;51.438;5.470;2024-03-02T13:44:37;17.50;91.50
13721;DHT22;6932;51.438;5.470;2024-03-02T13:47:04;17.50;91.40
13721;DHT22;6932;51.438;5.470;2024-03-02T13:49:30;17.50;91.20
13721;DHT22;6932;51.438;5.470;2024-03-02T13:52:05;17.50;91.40
13721;DHT22;6932;51.438;5.470;2024-03-02T13:54:43;17.50;91.50
13721;DHT22;6932;51.438;5.470;2024-03-02T13:57:11;17.50;91.50
13721;DHT22;6932;51.438;5.470;2024-03-02T13:59:38;17.50;91.50
13721;DHT22;6932;51.438;5.470;2024-03-02T14:02:05;17.50;91.60
13721;DHT22;6932;51.438;5.470;2024-03-02T14:04:32;17.40;91.40
13721;DHT22;6932;51.438;5.470;2024-03-02T14:06:59;17.50;91.40
13721;DHT22;6932;51.438;5.470;2024-03-02T14:09:25;17.50;91.50
13721;DHT22;6932;51.438;5.470;2024-03-02T14:11:52;17.50;91.40
13721;DHT22;6932;51.438;5.470;2024-03-02T14:14:19;17.50;91.30
13721;DHT22;6932;51.438;5.470;2024-03-02T14:16:45;17.50;91.60
13721;DHT22;6932;51.438;5.470;2024-03-02T14:19:11;17.50;91.60
13721;DHT22;6932;51.438;5.470;2024-03-02T14:21:41;17.50;91.70
13721;DHT22;6932;51.438;5.470;2024-03-02T14:24:07;17.50;91.60
13721;DHT22;6932;51.438;5.470;2024-03-02T14:26:33;17.60;91.50
13721;DHT22;6932;51.438;5.470;2024-03-02T14:29:00;17.60;91.50
13721;DHT22;6932;51.438;5.470;2024-03-02T14:31:29;17.60;91.50
13721;DHT22;6932;51.438;5.470;2024-03-02T14:33:55;17.60;91.60
13721;DHT22;6932;51.438;5.470;2024-03-02T14:36:20;17.60;91.50
13721;DHT22;6932;51.438;5.470;2024-03-02T14:38:46;17.60;91.50
13721;DHT22;6932;51.438;5.470;2024-03-02T14:41:13;17.60;91.40
13721;DHT22;6932;51.438;5.470;2024-03-02T14:43:39;17.60;91.60
13721;DHT22;6932;51.438;5.470;2024-03-02T14:46:06;17.60;91.70
13721;DHT22;6932;51.438;5.470;2024-03-02T14:48:36;17.70;91.50
13721;DHT22;6932;51.438;5.470;2024-03-02T14:51:02;17.70;91.60
13721;DHT22;6932;51.438;5.470;2024-03-02T14:53:28;17.70;91.40
13721;DHT22;6932;51.438;5.470;2024-03-02T14:55:54;17.70;91.60
13721;DHT22;6932;51.438;5.470;2024-03-02T14:58:20;17.70;91.40
13721;DHT22;6932;51.438;5.470;2024-03-02T15:00:46;17.70;91.50
13721;DHT22;6932;51.438;5.470;2024-03-02T15:03:12;17.70;91.40
13721;DHT22;6932;51.438;5.470;2024-03-02T15:05:38;17.70;91.40
13721;DHT22;6932;51.438;5.470;2024-03-02T15:08:06;17.70;91.40
13721;DHT22;6932;51.438;5.470;2024-03-02T15:10:32;17.70;91.70
13721;DHT22;6932;51.438;5.470;2024-03-02T15:12:58;17.70;91.50
13721;DHT22;6932;51.438;5.470;2024-03-02T15:15:24;17.70;91.50
13721;DHT22;6932;51.438;5.470;2024-03-02T15:17:50;17.70;91.50
13721;DHT22;6932;51.438;5.470;2024-03-02T15:20:17;17.70;91.60
13721;DHT22;6932;51.438;5.470;2024-03-02T15:22:43;17.60;91.60
13721;DHT22;6932;51.438;5.470;2024-03-02T15:25:09;17.60;91.70
13721;DHT22;6932;51.438;5.470;2024-03-02T15:27:35;17.60;91.70
13721;DHT22;6932;51.438;5.470;2024-03-02T15:30:01;17.60;92.00
13721;DHT22;6932;51.438;5.470;2024-03-02T15:32:27;17.60;91.70
13721;DHT22;6932;51.438;5.470;2024-03-02T15:34:55;17.60;91.80
13721;DHT22;6932;51.438;5.470;2024-03-02T15:37:21;17.60;91.80
13721;DHT22;6932;51.438;5.470;2024-03-02T15:39:47;17.50;91.70
13721;DHT22;6932;51.438;5.470;2024-03-02T15:42:13;17.50;91.60
13721;DHT22;6932;51.438;5.470;2024-03-02T15:44:39;17.50;91.50
13721;DHT22;6932;51.438;5.470;2024-03-02T15:47:05;17.50;91.60
13721;DHT22;6932;51.438;5.470;2024-03-02T15:49:31;17.50;91.70
13721;DHT22;6932;51.438;5.470;2024-03-02T15:51:57;17.50;91.80
13721;DHT22;6932;51.438;5.470;2024-03-02T15:54:26;17.40;92.00